createdAt,value
2018-12-13T00:00:16.221Z,83.54
2018-12-13T00:01:16.216Z,83.64
2018-12-13T00:02:16.233Z,83.85
2018-12-13T00:03:16.204Z,83.54
2018-12-13T00:04:16.183Z,83.75
2018-12-13T00:05:16.192Z,84.06
2018-12-13T00:06:16.154Z,84.38
2018-12-13T00:07:16.171Z,84.38
2018-12-13T00:08:16.147Z,84.94
2018-12-13T00:09:16.139Z,84.62
2018-12-13T00:10:16.122Z,85.25
2018-12-13T00:11:16.134Z,85.35
2018-12-13T00:12:16.117Z,85.67
2018-12-13T00:13:16.108Z,85.18
2018-12-13T00:14:16.081Z,84.97
2018-12-13T00:15:16.063Z,85.35
2018-12-13T00:16:16.090Z,84.77
2018-12-13T00:17:16.050Z,85.50
2018-12-13T00:18:16.025Z,85.71
2018-12-13T00:19:16.018Z,86.13
2018-12-13T00:20:16.026Z,86.44
2018-12-13T00:21:15.993Z,86.51
2018-12-13T00:22:15.992Z,86.29
2018-12-13T00:23:15.965Z,86.13
2018-12-13T00:24:15.954Z,85.35
2018-12-13T00:25:15.996Z,85.04
2018-12-13T00:26:15.934Z,85.56
2018-12-13T00:27:15.923Z,84.83
2018-12-13T00:28:15.927Z,85.04
2018-12-13T00:29:15.898Z,84.94
2018-12-13T00:30:15.917Z,85.14
2018-12-13T00:31:15.877Z,85.14
2018-12-13T00:32:15.892Z,85.14
2018-12-13T00:33:15.879Z,85.14
2018-12-13T00:34:15.854Z,85.14
2018-12-13T00:35:15.846Z,84.87
2018-12-13T00:36:15.824Z,84.73
2018-12-13T00:37:15.842Z,85.18
2018-12-13T00:38:15.801Z,85.14
2018-12-13T00:39:15.790Z,85.18
2018-12-13T00:40:15.777Z,84.87
2018-12-13T00:41:15.801Z,85.39
2018-12-13T00:42:15.788Z,85.35
2018-12-13T00:43:15.745Z,85.29
2018-12-13T00:44:15.732Z,84.52
2018-12-13T00:45:15.723Z,84.83
2018-12-13T00:46:15.747Z,84.94
2018-12-13T00:47:15.733Z,85.18
2018-12-13T00:48:15.706Z,85.18
2018-12-13T00:49:15.684Z,85.04
2018-12-13T00:50:15.667Z,85.04
2018-12-13T00:51:15.657Z,85.29
2018-12-13T00:52:15.678Z,85.29
2018-12-13T00:53:15.633Z,85.14
2018-12-13T00:54:15.651Z,84.94
2018-12-13T00:55:15.623Z,85.04
2018-12-13T00:56:15.597Z,84.41
2018-12-13T00:57:15.627Z,84.52
2018-12-13T00:58:15.603Z,84.41
2018-12-13T00:59:15.594Z,84.52
2018-12-13T01:00:15.560Z,84.79
2018-12-13T01:01:15.550Z,84.69
2018-12-13T01:02:15.536Z,84.38
2018-12-13T01:03:15.555Z,84.52
2018-12-13T01:04:15.512Z,84.17
2018-12-13T01:05:15.510Z,84.94
2018-12-13T01:06:15.512Z,84.79
2018-12-13T01:07:15.502Z,84.58
2018-12-13T01:08:15.490Z,84.62
2018-12-13T01:09:15.485Z,84.62
2018-12-13T01:10:15.446Z,84.52
2018-12-13T01:11:15.431Z,84.94
2018-12-13T01:12:15.433Z,84.73
2018-12-13T01:13:15.410Z,85.35
2018-12-13T01:14:15.448Z,85.39
2018-12-13T01:15:15.395Z,85.35
2018-12-13T01:16:15.384Z,85.04
2018-12-13T01:17:15.367Z,85.35
2018-12-13T01:18:15.380Z,84.83
2018-12-13T01:19:15.383Z,85.56
2018-12-13T01:20:15.366Z,85.29
2018-12-13T01:21:20.589Z,85.18
2018-12-13T01:22:16.310Z,84.97
2018-12-13T01:23:15.319Z,85.08
2018-12-13T01:24:15.324Z,84.87
2018-12-13T01:25:15.277Z,84.77
2018-12-13T01:26:15.271Z,85.50
2018-12-13T01:27:15.270Z,85.60
2018-12-13T01:28:15.249Z,85.29
2018-12-13T01:29:15.275Z,85.29
2018-12-13T01:30:15.219Z,85.08
2018-12-13T01:31:15.208Z,84.87
2018-12-13T01:32:15.205Z,85.18
2018-12-13T01:33:15.192Z,85.29
2018-12-13T01:34:15.211Z,85.50
2018-12-13T01:35:15.181Z,85.18
2018-12-13T01:36:15.173Z,85.29
2018-12-13T01:37:15.144Z,85.01
2018-12-13T01:38:15.133Z,85.39
2018-12-13T01:39:15.157Z,85.39
2018-12-13T01:40:15.115Z,85.81
2018-12-13T01:41:15.150Z,86.37
2018-12-13T01:42:15.110Z,86.16
2018-12-13T01:43:15.095Z,86.16
2018-12-13T01:44:15.066Z,86.16
2018-12-13T01:45:15.074Z,86.37
2018-12-13T01:46:15.063Z,86.37
2018-12-13T01:47:15.042Z,86.16
2018-12-13T01:48:15.028Z,86.37
2018-12-13T01:49:15.009Z,85.96
2018-12-13T01:50:15.029Z,85.85
2018-12-13T01:51:15.021Z,86.06
2018-12-13T01:52:14.984Z,85.85
2018-12-13T01:53:14.973Z,86.27
2018-12-13T01:54:14.957Z,86.52
2018-12-13T01:55:14.940Z,86.72
2018-12-13T01:56:14.956Z,86.90
2018-12-13T01:57:14.962Z,86.83
2018-12-13T01:58:14.907Z,86.72
2018-12-13T01:59:14.905Z,87.04
2018-12-13T02:00:14.891Z,87.77
2018-12-13T02:01:14.885Z,88.40
2018-12-13T02:02:14.904Z,87.77
2018-12-13T02:03:14.863Z,87.98
2018-12-13T02:04:14.846Z,88.29
2018-12-13T02:05:14.832Z,88.29
2018-12-13T02:06:14.827Z,88.40
2018-12-13T02:07:14.846Z,88.02
2018-12-13T02:08:14.820Z,88.02
2018-12-13T02:09:14.792Z,87.92
2018-12-13T02:10:14.810Z,88.65
2018-12-13T02:11:14.762Z,88.86
2018-12-13T02:12:14.753Z,89.07
2018-12-13T02:13:14.746Z,88.44
2018-12-13T02:14:14.760Z,88.44
2018-12-13T02:15:14.725Z,88.86
2018-12-13T02:16:14.709Z,88.96
2018-12-13T02:17:14.715Z,88.75
2018-12-13T02:18:14.687Z,88.69
2018-12-13T02:19:14.698Z,88.65
2018-12-13T02:20:14.667Z,88.69
2018-12-13T02:21:14.654Z,89.00
2018-12-13T02:22:14.664Z,89.00
2018-12-13T02:23:14.634Z,89.22
2018-12-13T02:24:14.651Z,89.63
2018-12-13T02:25:14.626Z,89.84
2018-12-13T02:26:14.660Z,89.95
2018-12-13T02:27:14.590Z,89.73
2018-12-13T02:28:14.588Z,89.73
2018-12-13T02:29:14.603Z,89.63
2018-12-13T02:30:14.554Z,89.42
2018-12-13T02:31:14.542Z,89.42
2018-12-13T02:32:14.531Z,89.63
2018-12-13T02:33:14.522Z,89.73
2018-12-13T02:34:14.537Z,89.53
2018-12-13T02:35:14.539Z,89.53
2018-12-13T02:36:14.486Z,89.73
2018-12-13T02:37:14.482Z,89.73
2018-12-13T02:38:14.460Z,89.84
2018-12-13T02:39:14.455Z,89.95
2018-12-13T02:40:14.465Z,89.95
2018-12-13T02:41:14.434Z,89.84
2018-12-13T02:42:14.427Z,89.95
2018-12-13T02:43:14.447Z,89.84
2018-12-13T02:44:14.399Z,89.84
2018-12-13T02:45:14.397Z,89.95
2018-12-13T02:46:14.399Z,89.84
2018-12-13T02:47:14.361Z,89.53
2018-12-13T02:48:14.359Z,89.53
2018-12-13T02:49:14.339Z,89.63
2018-12-13T02:50:14.356Z,89.73
2018-12-13T02:51:14.376Z,89.84
2018-12-13T02:52:14.318Z,90.05
2018-12-13T02:53:14.300Z,89.22
2018-12-13T02:54:14.292Z,88.79
2018-12-13T02:55:14.312Z,89.00
2018-12-13T02:56:14.308Z,88.69
2018-12-13T02:57:14.254Z,89.32
2018-12-13T02:58:14.240Z,89.00
2018-12-13T02:59:14.233Z,88.79
2018-12-13T03:00:14.258Z,89.11
2018-12-13T03:01:14.242Z,89.84
2018-12-13T03:02:14.196Z,89.84
2018-12-13T03:03:14.191Z,89.73
2018-12-13T03:04:14.179Z,89.98
2018-12-13T03:05:14.165Z,89.47
2018-12-13T03:06:14.203Z,89.57
2018-12-13T03:07:14.400Z,90.26
2018-12-13T03:08:14.141Z,89.47
2018-12-13T03:09:14.123Z,89.36
2018-12-13T03:10:14.116Z,89.57
2018-12-13T03:11:14.143Z,89.57
2018-12-13T03:12:14.086Z,89.36
2018-12-13T03:13:14.106Z,89.63
2018-12-13T03:14:14.100Z,89.73
2018-12-13T03:15:14.067Z,89.95
2018-12-13T03:16:14.062Z,89.78
2018-12-13T03:17:14.062Z,89.88
2018-12-13T03:18:14.019Z,89.78
2018-12-13T03:19:14.070Z,89.67
2018-12-13T03:20:14.003Z,89.73
2018-12-13T03:21:14.011Z,89.84
2018-12-13T03:22:13.999Z,89.73
2018-12-13T03:23:13.964Z,89.73
2018-12-13T03:24:13.955Z,89.95
2018-12-13T03:25:13.949Z,89.22
2018-12-13T03:26:13.964Z,89.53
2018-12-13T03:27:13.947Z,89.84
2018-12-13T03:28:13.934Z,89.95
2018-12-13T03:29:13.895Z,89.95
2018-12-13T03:30:13.890Z,89.95
2018-12-13T03:31:13.893Z,89.95
2018-12-13T03:32:13.900Z,89.95
2018-12-13T03:33:13.858Z,89.84
2018-12-13T03:34:13.853Z,89.95
2018-12-13T03:35:13.832Z,89.73
2018-12-13T03:36:13.846Z,89.11
2018-12-13T03:37:20.411Z,89.22
2018-12-13T03:38:14.802Z,89.00
2018-12-13T03:39:13.795Z,89.00
2018-12-13T03:40:13.811Z,88.69
2018-12-13T03:41:13.780Z,88.79
2018-12-13T03:42:13.754Z,88.06
2018-12-13T03:43:13.781Z,88.48
2018-12-13T03:44:13.756Z,87.96
2018-12-13T03:45:13.725Z,88.37
2018-12-13T03:46:13.743Z,88.37
2018-12-13T03:47:13.710Z,88.06
2018-12-13T03:48:13.683Z,87.85
2018-12-13T03:49:13.706Z,88.37
2018-12-13T03:50:13.672Z,88.59
2018-12-13T03:51:13.656Z,87.96
2018-12-13T03:52:13.652Z,88.37
2018-12-13T03:53:13.633Z,87.96
2018-12-13T03:54:13.653Z,87.96
2018-12-13T03:55:13.608Z,88.21
2018-12-13T03:56:13.612Z,87.85
2018-12-13T03:57:13.593Z,88.06
2018-12-13T03:58:13.581Z,88.10
2018-12-13T03:59:13.606Z,87.85
2018-12-13T04:00:13.554Z,87.96
2018-12-13T04:01:13.557Z,88.27
2018-12-13T04:02:13.536Z,87.96
2018-12-13T04:03:13.519Z,88.06
2018-12-13T04:04:13.560Z,87.74
2018-12-13T04:05:13.499Z,88.48
2018-12-13T04:06:13.491Z,87.85
2018-12-13T04:07:13.490Z,86.91
2018-12-13T04:08:13.479Z,86.28
2018-12-13T04:09:13.489Z,86.38
2018-12-13T04:10:13.449Z,86.91
2018-12-13T04:11:13.456Z,86.60
2018-12-13T04:12:13.424Z,86.18
2018-12-13T04:13:13.453Z,85.75
2018-12-13T04:14:13.433Z,85.65
2018-12-13T04:15:13.388Z,85.97
2018-12-13T04:16:13.374Z,85.44
2018-12-13T04:17:13.367Z,85.75
2018-12-13T04:18:13.384Z,85.44
2018-12-13T04:19:13.371Z,85.48
2018-12-13T04:20:13.333Z,85.69
2018-12-13T04:21:13.326Z,85.44
2018-12-13T04:22:13.311Z,85.34
2018-12-13T04:23:13.321Z,85.69
2018-12-13T04:24:13.334Z,85.80
2018-12-13T04:25:13.279Z,85.75
2018-12-13T04:26:13.266Z,84.96
2018-12-13T04:27:13.268Z,85.06
2018-12-13T04:28:13.278Z,84.96
2018-12-13T04:29:13.231Z,85.48
2018-12-13T04:30:13.224Z,85.80
2018-12-13T04:31:13.210Z,85.17
2018-12-13T04:32:13.221Z,84.85
2018-12-13T04:33:13.199Z,84.50
2018-12-13T04:34:13.197Z,84.12
2018-12-13T04:35:13.190Z,84.44
2018-12-13T04:36:13.524Z,84.44
2018-12-13T04:37:13.143Z,83.59
2018-12-13T04:38:13.188Z,83.39
2018-12-13T04:39:13.149Z,83.91
2018-12-13T04:40:13.104Z,83.74
2018-12-13T04:41:13.096Z,83.81
2018-12-13T04:42:13.083Z,83.59
2018-12-13T04:43:13.103Z,83.64
2018-12-13T04:44:13.063Z,83.18
2018-12-13T04:45:13.064Z,83.18
2018-12-13T04:46:13.047Z,82.97
2018-12-13T04:47:13.044Z,83.07
2018-12-13T04:48:13.086Z,82.55
2018-12-13T04:49:13.012Z,82.55
2018-12-13T04:50:13.000Z,82.79
2018-12-13T04:51:12.997Z,82.86
2018-12-13T04:52:12.985Z,82.69
2018-12-13T04:53:12.994Z,82.86
2018-12-13T04:54:12.960Z,82.76
2018-12-13T04:55:12.960Z,82.86
2018-12-13T04:56:12.931Z,82.55
2018-12-13T04:57:12.924Z,82.79
2018-12-13T04:58:12.939Z,82.55
2018-12-13T04:59:12.900Z,82.65
2018-12-13T05:00:12.881Z,82.45
2018-12-13T05:01:12.877Z,82.65
2018-12-13T05:02:12.865Z,82.48
2018-12-13T05:03:12.871Z,82.23
2018-12-13T05:04:12.835Z,82.69
2018-12-13T05:05:12.847Z,82.48
2018-12-13T05:06:12.850Z,81.96
2018-12-13T05:07:12.841Z,82.13
2018-12-13T05:08:12.795Z,82.17
2018-12-13T05:09:12.810Z,81.82
2018-12-13T05:10:12.795Z,81.85
2018-12-13T05:11:12.870Z,81.82
2018-12-13T05:12:12.786Z,82.03
2018-12-13T05:13:12.764Z,82.06
2018-12-13T05:14:12.726Z,82.03
2018-12-13T05:15:12.732Z,81.50
2018-12-13T05:16:12.754Z,81.82
2018-12-13T05:17:12.693Z,81.19
2018-12-13T05:18:12.714Z,81.82
2018-12-13T05:19:12.675Z,81.23
2018-12-13T05:20:12.687Z,81.29
2018-12-13T05:21:12.659Z,81.33
2018-12-13T05:22:12.642Z,81.50
2018-12-13T05:23:12.624Z,81.60
2018-12-13T05:24:12.619Z,81.29
2018-12-13T05:25:12.637Z,81.12
2018-12-13T05:26:12.602Z,81.08
2018-12-13T05:27:12.595Z,81.33
2018-12-13T05:28:12.586Z,81.19
2018-12-13T05:29:12.559Z,80.87
2018-12-13T05:30:12.599Z,81.29
2018-12-13T05:31:12.543Z,81.50
2018-12-13T05:32:12.567Z,80.46
2018-12-13T05:33:12.514Z,80.87
2018-12-13T05:34:12.502Z,80.14
2018-12-13T05:35:12.491Z,80.04
2018-12-13T05:36:12.515Z,79.61
2018-12-13T05:37:12.510Z,79.83
2018-12-13T05:38:12.458Z,79.72
2018-12-13T05:39:12.474Z,79.41
2018-12-13T05:40:12.436Z,79.83
2018-12-13T05:41:12.536Z,79.51
2018-12-13T05:42:12.444Z,79.61
2018-12-13T05:43:12.405Z,79.30
2018-12-13T05:44:12.403Z,78.88
2018-12-13T05:45:12.400Z,79.20
2018-12-13T05:46:12.394Z,79.20
2018-12-13T05:47:12.358Z,79.41
2018-12-13T05:48:12.347Z,79.13
2018-12-13T05:49:12.335Z,79.72
2018-12-13T05:50:12.332Z,79.41
2018-12-13T05:51:12.366Z,79.51
2018-12-13T05:52:12.307Z,78.78
2018-12-13T05:53:12.291Z,79.23
2018-12-13T05:54:12.330Z,79.09
2018-12-13T05:55:12.267Z,79.20
2018-12-13T05:56:12.258Z,79.20
2018-12-13T05:57:12.693Z,79.02
2018-12-13T05:58:12.232Z,79.34
2018-12-13T05:59:12.264Z,79.86
2018-12-13T06:00:12.219Z,78.88
2018-12-13T06:01:12.205Z,79.44
2018-12-13T06:02:12.214Z,79.65
2018-12-13T06:03:12.193Z,79.44
2018-12-13T06:04:12.226Z,79.79
2018-12-13T06:05:12.180Z,79.65
2018-12-13T06:06:12.145Z,79.55
2018-12-13T06:07:12.157Z,78.92
2018-12-13T06:08:12.147Z,79.34
2018-12-13T06:09:12.136Z,78.67
2018-12-13T06:10:12.133Z,79.55
2018-12-13T06:11:12.093Z,79.34
2018-12-13T06:12:12.092Z,78.71
2018-12-13T06:13:12.071Z,79.23
2018-12-13T06:14:12.056Z,79.23
2018-12-13T06:15:12.098Z,78.81
2018-12-13T06:16:12.040Z,79.34
2018-12-13T06:17:12.027Z,79.79
2018-12-13T06:18:12.012Z,79.69
2018-12-13T06:19:12.016Z,79.79
2018-12-13T06:20:12.020Z,79.90
2018-12-13T06:21:12.024Z,79.90
2018-12-13T06:22:11.971Z,80.21
2018-12-13T06:23:12.034Z,79.90
2018-12-13T06:24:11.942Z,79.79
2018-12-13T06:25:11.956Z,80.11
2018-12-13T06:26:11.935Z,80.11
2018-12-13T06:27:11.915Z,79.79
2018-12-13T06:28:11.896Z,80.00
2018-12-13T06:29:11.924Z,80.00
2018-12-13T06:30:11.880Z,79.69
2018-12-13T06:31:11.895Z,80.21
2018-12-13T06:32:11.854Z,80.15
2018-12-13T06:33:11.844Z,80.46
2018-12-13T06:34:11.833Z,80.11
2018-12-13T06:35:11.835Z,79.69
2018-12-13T06:36:12.094Z,79.58
2018-12-13T06:37:11.796Z,78.96
2018-12-13T06:38:11.785Z,79.16
2018-12-13T06:39:11.777Z,79.38
2018-12-13T06:40:15.570Z,79.48
2018-12-13T06:41:11.816Z,79.48
2018-12-13T06:42:11.773Z,78.85
2018-12-13T06:43:11.743Z,79.90
2018-12-13T06:44:11.718Z,79.38
2018-12-13T06:45:11.765Z,79.38
2018-12-13T06:46:11.730Z,79.02
2018-12-13T06:47:11.685Z,78.33
2018-12-13T06:48:11.679Z,78.81
2018-12-13T06:49:11.671Z,78.81
2018-12-13T06:50:11.686Z,78.74
2018-12-13T06:51:11.642Z,78.64
2018-12-13T06:52:11.683Z,79.06
2018-12-13T06:53:11.617Z,78.96
2018-12-13T06:54:11.616Z,79.48
2018-12-13T06:55:11.639Z,79.30
2018-12-13T06:56:11.608Z,78.99
2018-12-13T06:57:11.605Z,78.99
2018-12-13T06:58:11.561Z,78.96
2018-12-13T06:59:11.554Z,78.99
2018-12-13T07:00:11.542Z,79.38
2018-12-13T07:01:11.530Z,79.06
2018-12-13T07:02:11.575Z,79.06
2018-12-13T07:03:11.532Z,79.48
2018-12-13T07:04:11.498Z,78.85
2018-12-13T07:05:11.487Z,79.27
2018-12-13T07:06:11.510Z,79.48
2018-12-13T07:07:11.477Z,79.48
2018-12-13T07:10:29.123Z,79.52
2018-12-13T07:11:28.859Z,78.96
2018-12-13T07:12:28.871Z,79.06
2018-12-13T07:13:28.839Z,79.06
2018-12-13T07:14:28.824Z,78.64
2018-12-13T07:15:28.846Z,78.64
2018-12-13T07:16:28.801Z,78.85
2018-12-13T07:17:28.789Z,78.67
2018-12-13T07:18:28.779Z,79.38
2018-12-13T07:19:28.790Z,78.96
2018-12-13T07:20:28.766Z,78.96
2018-12-13T07:21:28.755Z,78.53
2018-12-13T07:22:28.740Z,78.11
2018-12-13T07:23:28.778Z,78.22
2018-12-13T07:24:28.713Z,77.91
2018-12-13T07:25:28.701Z,78.11
2018-12-13T07:26:28.717Z,77.80
2018-12-13T07:27:28.690Z,77.59
2018-12-13T07:28:29.108Z,78.43
2018-12-13T07:29:28.658Z,77.70
2018-12-13T07:30:28.645Z,78.22
2018-12-13T07:31:28.659Z,77.70
2018-12-13T07:32:28.623Z,78.22
2018-12-13T07:33:28.627Z,77.91
2018-12-13T07:34:28.615Z,78.01
2018-12-13T07:35:28.628Z,77.91
2018-12-13T07:36:28.600Z,77.80
2018-12-13T07:37:28.590Z,77.59
2018-12-13T07:38:28.583Z,78.11
2018-12-13T07:39:28.551Z,78.22
2018-12-13T07:40:28.565Z,77.59
2018-12-13T07:41:28.593Z,78.22
2018-12-13T07:42:28.515Z,77.70
2018-12-13T07:43:28.579Z,78.57
2018-12-13T07:44:28.522Z,77.70
2018-12-13T07:45:28.501Z,77.91
2018-12-13T07:46:28.503Z,77.91
2018-12-13T07:47:28.498Z,78.01
2018-12-13T07:48:28.448Z,78.53
2018-12-13T07:49:28.437Z,78.33
2018-12-13T07:50:28.549Z,78.22
2018-12-13T07:51:28.414Z,78.96
2018-12-13T07:52:28.417Z,78.53
2018-12-13T07:53:28.403Z,78.33
2018-12-13T07:54:28.390Z,78.43
2018-12-13T07:55:28.442Z,77.91
2018-12-13T07:56:29.301Z,77.59
2018-12-13T07:57:28.397Z,78.43
2018-12-13T07:58:28.355Z,78.22
2018-12-13T07:59:28.343Z,78.11
2018-12-13T08:00:28.314Z,78.96
2018-12-13T08:01:28.314Z,78.22
2018-12-13T08:02:28.325Z,78.33
2018-12-13T08:03:28.332Z,78.33
2018-12-13T08:04:28.281Z,78.43
2018-12-13T08:05:28.293Z,78.43
2018-12-13T08:06:28.276Z,78.11
2018-12-13T08:07:28.243Z,77.91
2018-12-13T08:08:28.272Z,78.22
2018-12-13T08:09:28.215Z,78.74
2018-12-13T08:10:28.205Z,78.01
2018-12-13T08:11:28.209Z,78.22
2018-12-13T08:12:28.182Z,78.01
2018-12-13T08:13:28.203Z,78.01
2018-12-13T08:14:28.165Z,78.33
2018-12-13T08:15:28.151Z,78.85
2018-12-13T08:16:28.151Z,77.70
2018-12-13T08:17:28.153Z,77.91
2018-12-13T08:18:28.141Z,77.59
2018-12-13T08:19:28.119Z,77.76
2018-12-13T08:20:28.093Z,77.17
2018-12-13T08:21:28.138Z,77.76
2018-12-13T08:22:28.072Z,77.14
2018-12-13T08:23:28.118Z,77.56
2018-12-13T08:24:28.068Z,77.56
2018-12-13T08:25:28.039Z,77.24
2018-12-13T08:26:28.030Z,76.68
2018-12-13T08:27:28.059Z,76.26
2018-12-13T08:28:28.071Z,76.26
2018-12-13T08:29:28.007Z,75.78
2018-12-13T08:30:28.006Z,75.84
2018-12-13T08:31:28.003Z,76.16
2018-12-13T08:32:27.968Z,75.95
2018-12-13T08:33:27.957Z,76.06
2018-12-13T08:34:27.961Z,75.88
2018-12-13T08:35:27.936Z,75.88
2018-12-13T08:36:27.942Z,75.63
2018-12-13T08:37:27.910Z,75.63
2018-12-13T08:38:27.944Z,76.16
2018-12-13T08:39:27.887Z,76.37
2018-12-13T08:40:27.900Z,76.06
2018-12-13T08:41:27.866Z,75.43
2018-12-13T08:42:27.850Z,75.74
2018-12-13T08:43:27.870Z,75.43
2018-12-13T08:44:27.854Z,75.95
2018-12-13T08:45:27.823Z,76.26
2018-12-13T08:46:27.822Z,75.53
2018-12-13T08:47:27.887Z,75.43
2018-12-13T08:48:27.795Z,75.11
2018-12-13T08:49:27.801Z,75.32
2018-12-13T08:50:27.794Z,75.32
2018-12-13T08:51:27.753Z,75.21
2018-12-13T08:52:27.773Z,74.58
2018-12-13T08:53:27.772Z,75.11
2018-12-13T08:54:27.719Z,74.80
2018-12-13T08:55:27.705Z,74.58
2018-12-13T08:56:27.698Z,74.48
2018-12-13T08:57:27.731Z,74.69
2018-12-13T08:58:27.721Z,74.69
2018-12-13T08:59:27.664Z,74.58
2018-12-13T09:00:27.689Z,74.24
2018-12-13T09:01:27.643Z,74.24
2018-12-13T09:02:27.658Z,73.72
2018-12-13T09:03:27.620Z,73.72
2018-12-13T09:04:27.649Z,73.82
2018-12-13T09:05:27.610Z,73.40
2018-12-13T09:06:27.585Z,74.13
2018-12-13T09:07:27.603Z,74.45
2018-12-13T09:08:33.468Z,74.34
2018-12-13T09:09:28.569Z,74.13
2018-12-13T09:10:27.541Z,73.82
2018-12-13T09:11:27.551Z,73.19
2018-12-13T09:12:27.825Z,73.82
2018-12-13T09:13:27.631Z,72.88
2018-12-13T09:14:27.504Z,73.93
2018-12-13T09:15:27.485Z,74.03
2018-12-13T09:16:31.421Z,73.93
2018-12-13T09:17:27.678Z,72.77
2018-12-13T09:18:27.469Z,74.41
2018-12-13T09:19:27.453Z,73.47
2018-12-13T09:20:27.435Z,73.47
2018-12-13T09:21:27.423Z,73.61
2018-12-13T09:22:27.433Z,73.89
2018-12-13T09:23:27.402Z,73.16
2018-12-13T09:24:27.384Z,72.85
2018-12-13T09:25:27.397Z,72.32
2018-12-13T09:26:28.342Z,72.74
2018-12-13T09:27:27.362Z,73.26
2018-12-13T09:28:27.371Z,73.05
2018-12-13T09:29:27.344Z,73.26
2018-12-13T09:30:27.324Z,73.26
2018-12-13T09:31:27.337Z,73.37
2018-12-13T09:32:27.319Z,72.85
2018-12-13T09:33:27.291Z,73.13
2018-12-13T09:34:27.323Z,72.39
2018-12-13T09:35:27.287Z,72.50
2018-12-13T09:36:27.270Z,72.19
2018-12-13T09:37:27.247Z,72.39
2018-12-13T09:38:27.451Z,72.71
2018-12-13T09:39:27.277Z,72.29
2018-12-13T09:40:27.244Z,72.08
2018-12-13T09:41:27.212Z,71.66
2018-12-13T09:42:27.716Z,72.29
2018-12-13T09:43:27.176Z,72.29
2018-12-13T09:44:27.194Z,72.39
2018-12-13T09:45:27.182Z,72.60
2018-12-13T09:46:27.155Z,72.50
2018-12-13T09:47:27.140Z,72.19
2018-12-13T09:48:27.131Z,71.94
2018-12-13T09:49:27.136Z,71.56
2018-12-13T09:50:27.130Z,71.62
2018-12-13T09:51:27.120Z,71.56
2018-12-13T09:52:27.081Z,71.87
2018-12-13T09:53:27.082Z,70.48
2018-12-13T09:54:27.097Z,71.24
2018-12-13T09:55:27.056Z,71.56
2018-12-13T09:56:27.053Z,71.11
2018-12-13T09:57:27.047Z,71.21
2018-12-13T09:58:27.039Z,71.00
2018-12-13T09:59:27.039Z,70.37
2018-12-13T10:00:27.006Z,69.95
2018-12-13T10:01:26.986Z,69.95
2018-12-13T10:02:26.990Z,69.92
2018-12-13T10:03:27.014Z,70.45
2018-12-13T10:04:26.946Z,70.27
2018-12-13T10:05:26.977Z,70.68
2018-12-13T10:06:26.937Z,70.24
2018-12-13T10:07:26.920Z,70.24
2018-12-13T10:08:26.904Z,69.71
2018-12-13T10:09:26.924Z,70.03
2018-12-13T10:10:26.958Z,69.82
2018-12-13T10:11:26.871Z,69.82
2018-12-13T10:12:26.894Z,69.71
2018-12-13T10:13:26.850Z,68.57
2018-12-13T10:14:26.839Z,68.57
2018-12-13T10:15:32.010Z,68.63
2018-12-13T10:16:27.844Z,69.19
2018-12-13T10:17:26.817Z,68.53
2018-12-13T10:18:26.795Z,68.57
2018-12-13T10:19:26.994Z,68.67
2018-12-13T10:20:26.768Z,67.94
2018-12-13T10:21:26.773Z,68.43
2018-12-13T10:22:26.751Z,68.22
2018-12-13T10:23:26.964Z,68.74
2018-12-13T10:24:26.766Z,67.80
2018-12-13T10:25:26.721Z,67.18
2018-12-13T10:26:26.704Z,66.97
2018-12-13T10:27:26.753Z,67.62
2018-12-13T10:28:26.818Z,68.25
2018-12-13T10:29:26.675Z,68.57
2018-12-13T10:30:26.658Z,68.57
2018-12-13T10:31:26.693Z,69.29
2018-12-13T10:32:26.760Z,69.19
2018-12-13T10:33:26.626Z,68.57
2018-12-13T10:34:26.623Z,68.67
2018-12-13T10:35:27.604Z,68.67
2018-12-13T10:36:26.651Z,68.25
2018-12-13T10:37:26.583Z,68.04
2018-12-13T10:38:26.584Z,67.94
2018-12-13T10:39:26.590Z,68.88
2018-12-13T10:40:26.554Z,68.57
2018-12-13T10:41:27.589Z,68.57
2018-12-13T10:42:26.537Z,68.12
2018-12-13T10:43:26.555Z,67.59
2018-12-13T10:44:26.517Z,67.59
2018-12-13T10:45:26.496Z,67.21
2018-12-13T10:46:26.482Z,68.25
2018-12-13T10:47:26.479Z,67.73
2018-12-13T10:48:26.492Z,68.32
2018-12-13T10:49:26.465Z,67.62
2018-12-13T10:50:26.448Z,67.52
2018-12-13T10:51:26.457Z,67.73
2018-12-13T10:52:26.471Z,68.04
2018-12-13T10:53:26.457Z,68.25
2018-12-13T10:54:26.402Z,68.04
2018-12-13T10:55:26.424Z,67.73
2018-12-13T10:56:26.391Z,67.41
2018-12-13T10:57:26.823Z,67.73
2018-12-13T10:58:26.380Z,68.25
2018-12-13T10:59:26.372Z,68.25
2018-12-13T11:00:26.369Z,67.00
2018-12-13T11:01:26.325Z,67.49
2018-12-13T11:02:26.312Z,66.24
2018-12-13T11:03:26.297Z,66.34
2018-12-13T11:04:26.298Z,66.44
2018-12-13T11:05:26.312Z,67.49
2018-12-13T11:06:26.267Z,67.00
2018-12-13T11:07:26.264Z,66.47
2018-12-13T11:08:26.265Z,66.89
2018-12-13T11:09:26.228Z,67.00
2018-12-13T11:10:26.224Z,67.10
2018-12-13T11:11:26.233Z,67.31
2018-12-13T11:12:26.200Z,67.41
2018-12-13T11:13:26.203Z,66.24
2018-12-13T11:14:26.201Z,66.24
2018-12-13T11:15:26.174Z,66.44
2018-12-13T11:16:26.169Z,66.03
2018-12-13T11:17:26.149Z,66.34
2018-12-13T11:18:26.154Z,65.09
2018-12-13T11:19:26.119Z,65.22
2018-12-13T11:20:26.132Z,65.33
2018-12-13T11:21:26.106Z,65.11
2018-12-13T11:22:26.091Z,65.30
2018-12-13T11:23:26.106Z,65.19
2018-12-13T11:24:26.063Z,65.37
2018-12-13T11:25:26.077Z,64.22
2018-12-13T11:26:26.043Z,63.90
2018-12-13T11:27:26.168Z,62.79
2018-12-13T11:28:26.067Z,63.42
2018-12-13T11:29:26.009Z,63.93
2018-12-13T11:30:26.002Z,64.04
2018-12-13T11:31:26.012Z,63.62
2018-12-13T11:32:25.987Z,64.14
2018-12-13T11:33:25.978Z,63.62
2018-12-13T11:34:25.988Z,64.64
2018-12-13T11:35:25.942Z,63.83
2018-12-13T11:36:25.938Z,63.42
2018-12-13T11:37:25.921Z,63.31
2018-12-13T11:38:25.911Z,62.68
2018-12-13T11:39:25.921Z,62.89
2018-12-13T11:40:25.889Z,63.73
2018-12-13T11:41:25.876Z,63.73
2018-12-13T11:42:25.949Z,62.68
2018-12-13T11:43:25.896Z,63.52
2018-12-13T11:44:26.135Z,63.31
2018-12-13T11:45:25.832Z,63.31
2018-12-13T11:46:25.819Z,63.20
2018-12-13T11:47:25.810Z,64.04
2018-12-13T11:48:25.863Z,63.39
2018-12-13T11:49:25.818Z,63.70
2018-12-13T11:50:25.779Z,63.28
2018-12-13T11:51:25.814Z,63.18
2018-12-13T11:52:25.754Z,63.04
2018-12-13T11:53:25.768Z,62.10
2018-12-13T11:54:25.734Z,63.18
2018-12-13T11:55:25.761Z,61.08
2018-12-13T11:56:25.721Z,61.08
2018-12-13T11:57:25.710Z,61.08
2018-12-13T11:58:25.711Z,60.67
2018-12-13T11:59:25.698Z,60.88
2018-12-13T12:00:25.696Z,60.91
2018-12-13T12:01:25.739Z,61.92
2018-12-13T12:02:25.671Z,61.51
2018-12-13T12:03:25.646Z,60.57
2018-12-13T12:04:25.655Z,60.98
2018-12-13T12:05:25.609Z,60.67
2018-12-13T12:06:25.631Z,60.57
2018-12-13T12:07:25.603Z,61.30
2018-12-13T12:08:25.578Z,61.08
2018-12-13T12:09:25.635Z,60.88
2018-12-13T12:10:25.590Z,60.98
2018-12-13T12:11:25.576Z,60.77
2018-12-13T12:12:25.585Z,61.30
2018-12-13T12:13:25.559Z,61.08
2018-12-13T12:14:25.515Z,61.16
2018-12-13T12:15:25.564Z,59.94
2018-12-13T12:16:25.519Z,59.10
2018-12-13T12:17:25.484Z,60.43
2018-12-13T12:18:25.517Z,60.22
2018-12-13T12:19:25.456Z,59.81
2018-12-13T12:20:25.475Z,59.28
2018-12-13T12:21:25.433Z,59.08
2018-12-13T12:22:25.431Z,59.52
2018-12-13T12:23:25.463Z,60.22
2018-12-13T12:24:25.402Z,60.64
2018-12-13T12:25:25.403Z,59.28
2018-12-13T12:26:25.384Z,59.49
2018-12-13T12:27:25.402Z,60.43
2018-12-13T12:28:25.365Z,60.53
2018-12-13T12:29:25.356Z,59.28
2018-12-13T12:30:25.342Z,59.39
2018-12-13T12:31:25.352Z,59.18
2018-12-13T12:32:25.316Z,60.96
2018-12-13T12:33:25.305Z,61.47
2018-12-13T12:34:25.309Z,61.06
2018-12-13T12:35:25.306Z,61.06
2018-12-13T12:36:25.272Z,60.96
2018-12-13T12:37:25.276Z,60.96
2018-12-13T12:38:25.287Z,60.12
2018-12-13T12:39:25.290Z,60.22
2018-12-13T12:40:25.247Z,60.33
2018-12-13T12:41:25.297Z,60.75
2018-12-13T12:42:25.244Z,59.28
2018-12-13T12:43:25.193Z,60.64
2018-12-13T12:44:25.215Z,60.96
2018-12-13T12:45:25.179Z,61.06
2018-12-13T12:46:25.187Z,60.61
2018-12-13T12:47:25.152Z,61.27
2018-12-13T12:48:25.138Z,60.33
2018-12-13T12:49:25.348Z,60.53
2018-12-13T12:50:25.124Z,59.88
2018-12-13T12:51:25.105Z,59.08
2018-12-13T12:52:25.102Z,59.28
2018-12-13T12:53:25.081Z,58.87
2018-12-13T12:54:25.105Z,59.05